עמוד ראשי
METAR-TAF:

METAR-TAF

שדות תעופה :

ארקיפה, פרו

קו רוחב: 16-19S, קו אורך: 071-33W, גובה: 2538מטר

תצפית מזג אוויר נוכחית

הדו"ח נערך לפני 57דקות, בשעה 00:00 UTC
רוח 6קשר מכיוון מערב, משתנה בין מערב/דרום-מערב ו מערב/צפון-מערב
טמפרטורת 14 צלסיוס
לחות 21%
לחץ 1028 hPa
ראות 10 קילומטר או יותר
ללא עננים שבסיסם נמוך מ 5000 רגל או קומולונימבוס

METAR: SPQU 130000Z 28006KT 240V300 CAVOK 14/M08 Q1028 RMK PP000

זמן: 19:57 (00:57 UTC)

תחזית

הדו"ח נערך לפני 1 שעות ו 57דקות, בשעה 23:00 UTC
תחזית בתוקף מ 13 ב 00 UTC עד 13 ב 24 UTC
רוח 4קשר מכיוון צפון/צפון-מזרח
ראות 10 קילומטר או יותר
ללא עננים שבסיסם נמוך מ 5000 רגל או קומולונימבוס
מ 13 ב 1430UTC
רוח 4קשר מכיוון דרום-מערב
ראות 10 קילומטר או יותר
ללא עננים שבסיסם נמוך מ 5000 רגל או קומולונימבוס
מ 13 ב 1800UTC
רוח 11קשר מכיוון מערב
ראות 10 קילומטר או יותר
ללא עננים שבסיסם נמוך מ 5000 רגל או קומולונימבוס

TAF: SPQU 122300Z 1300/1324 03004KT CAVOK TX22/1317Z TN08/1310Z FM131430 23004KT CAVOK FM131800 27011KT CAVOK

תצפיות ותחזיות מזג אוויר לגבי יותר מ- 4,000 שדות תעופה ברחבי העולם. דוחות METAR ו- TAF.

התחנות הזמינות מסומנות בנקודות צהובות ואדומות על גבי המפה.

העבר את העכבר לנקודה הצבעונית על מנת לראות את שם התחנה.

לאחר מכן, לחץ כדי לראות את תוכן ואת תחזיות מזג האוויר.

כדי לשנות את המפה: לחץ על הכפתורים הירוקים עם הפלוס השחור כדי להתקרב; על הכפתור הירוק עם המקף כדי להתרחק; או בחיצים הירוקים למפות סמוכות.


METAR-TAF: